sensor_id;sensor_type;location;lat;lon;timestamp;temperature;humidity
10431;DHT22;5262;59.958;17.726;2023-04-01T00:00:18;-7.80;99.90
10431;DHT22;5262;59.958;17.726;2023-04-01T00:02:44;-7.80;99.90
10431;DHT22;5262;59.958;17.726;2023-04-01T00:05:10;-7.80;99.90
10431;DHT22;5262;59.958;17.726;2023-04-01T00:07:40;-7.90;99.90
10431;DHT22;5262;59.958;17.726;2023-04-01T00:10:08;-7.90;99.90
10431;DHT22;5262;59.958;17.726;2023-04-01T00:12:35;-7.90;99.90
10431;DHT22;5262;59.958;17.726;2023-04-01T00:15:03;-8.00;99.90
10431;DHT22;5262;59.958;17.726;2023-04-01T00:17:29;-8.10;99.90
10431;DHT22;5262;59.958;17.726;2023-04-01T00:19:56;-8.10;99.90
10431;DHT22;5262;59.958;17.726;2023-04-01T00:22:22;-8.20;99.90
10431;DHT22;5262;59.958;17.726;2023-04-01T00:24:48;-8.20;99.90
10431;DHT22;5262;59.958;17.726;2023-04-01T00:27:14;-8.20;99.90
10431;DHT22;5262;59.958;17.726;2023-04-01T00:29:44;-8.20;99.90
10431;DHT22;5262;59.958;17.726;2023-04-01T00:32:10;-8.30;99.90
10431;DHT22;5262;59.958;17.726;2023-04-01T00:34:36;-8.30;99.90
10431;DHT22;5262;59.958;17.726;2023-04-01T00:37:02;-8.40;99.90
10431;DHT22;5262;59.958;17.726;2023-04-01T00:39:31;-8.40;99.90
10431;DHT22;5262;59.958;17.726;2023-04-01T00:41:58;-8.50;99.90
10431;DHT22;5262;59.958;17.726;2023-04-01T00:44:27;-8.60;99.90
10431;DHT22;5262;59.958;17.726;2023-04-01T00:46:52;-8.60;99.90
10431;DHT22;5262;59.958;17.726;2023-04-01T00:49:21;-8.60;99.90
10431;DHT22;5262;59.958;17.726;2023-04-01T00:51:50;-8.70;99.90
10431;DHT22;5262;59.958;17.726;2023-04-01T00:54:19;-8.70;99.90
10431;DHT22;5262;59.958;17.726;2023-04-01T00:56:52;-8.70;99.90
10431;DHT22;5262;59.958;17.726;2023-04-01T00:59:34;-8.70;99.90
10431;DHT22;5262;59.958;17.726;2023-04-01T01:02:02;-8.80;99.90
10431;DHT22;5262;59.958;17.726;2023-04-01T01:04:31;-8.80;99.90
10431;DHT22;5262;59.958;17.726;2023-04-01T01:15:36;-8.90;99.90
10431;DHT22;5262;59.958;17.726;2023-04-01T01:26:59;-8.90;99.90
10431;DHT22;5262;59.958;17.726;2023-04-01T01:29:44;-8.90;99.90
10431;DHT22;5262;59.958;17.726;2023-04-01T01:37:46;-8.90;99.90
10431;DHT22;5262;59.958;17.726;2023-04-01T01:40:13;-9.00;99.90
10431;DHT22;5262;59.958;17.726;2023-04-01T01:42:44;-8.90;99.90
10431;DHT22;5262;59.958;17.726;2023-04-01T01:45:12;-8.90;99.90
10431;DHT22;5262;59.958;17.726;2023-04-01T01:47:40;-8.70;99.90
10431;DHT22;5262;59.958;17.726;2023-04-01T01:50:07;-8.70;99.90
10431;DHT22;5262;59.958;17.726;2023-04-01T01:52:33;-8.80;99.90
10431;DHT22;5262;59.958;17.726;2023-04-01T01:54:59;-8.80;99.90
10431;DHT22;5262;59.958;17.726;2023-04-01T01:57:31;-8.70;99.90
10431;DHT22;5262;59.958;17.726;2023-04-01T02:00:05;-8.80;99.90
10431;DHT22;5262;59.958;17.726;2023-04-01T02:02:42;-8.80;99.90
10431;DHT22;5262;59.958;17.726;2023-04-01T02:05:21;-8.90;99.90
10431;DHT22;5262;59.958;17.726;2023-04-01T02:08:01;-8.80;99.90
10431;DHT22;5262;59.958;17.726;2023-04-01T02:10:29;-8.90;99.90
10431;DHT22;5262;59.958;17.726;2023-04-01T02:13:00;-8.90;99.90
10431;DHT22;5262;59.958;17.726;2023-04-01T02:15:30;-8.80;99.90
10431;DHT22;5262;59.958;17.726;2023-04-01T02:17:58;-8.80;99.90
10431;DHT22;5262;59.958;17.726;2023-04-01T02:20:25;-8.60;99.90
10431;DHT22;5262;59.958;17.726;2023-04-01T02:22:56;-8.70;99.90
10431;DHT22;5262;59.958;17.726;2023-04-01T02:25:34;-8.70;99.90
10431;DHT22;5262;59.958;17.726;2023-04-01T02:28:02;-8.60;99.90
10431;DHT22;5262;59.958;17.726;2023-04-01T02:30:31;-8.70;99.90
10431;DHT22;5262;59.958;17.726;2023-04-01T02:32:58;-8.90;99.90
10431;DHT22;5262;59.958;17.726;2023-04-01T02:35:25;-8.80;99.90
10431;DHT22;5262;59.958;17.726;2023-04-01T02:37:52;-8.80;99.90
10431;DHT22;5262;59.958;17.726;2023-04-01T02:40:19;-8.90;99.90
10431;DHT22;5262;59.958;17.726;2023-04-01T02:42:44;-8.90;99.90
10431;DHT22;5262;59.958;17.726;2023-04-01T02:45:11;-8.90;99.90
10431;DHT22;5262;59.958;17.726;2023-04-01T02:47:37;-9.00;99.90
10431;DHT22;5262;59.958;17.726;2023-04-01T02:50:03;-9.10;99.90
10431;DHT22;5262;59.958;17.726;2023-04-01T02:52:30;-9.10;99.90
10431;DHT22;5262;59.958;17.726;2023-04-01T02:54:56;-9.10;99.90
10431;DHT22;5262;59.958;17.726;2023-04-01T02:57:22;-9.10;99.90
10431;DHT22;5262;59.958;17.726;2023-04-01T02:59:48;-9.10;99.90
10431;DHT22;5262;59.958;17.726;2023-04-01T03:02:14;-9.10;99.90
10431;DHT22;5262;59.958;17.726;2023-04-01T03:04:40;-9.20;99.90
10431;DHT22;5262;59.958;17.726;2023-04-01T03:07:06;-9.20;99.90
10431;DHT22;5262;59.958;17.726;2023-04-01T03:09:32;-9.10;99.90
10431;DHT22;5262;59.958;17.726;2023-04-01T03:11:58;-9.00;99.90
10431;DHT22;5262;59.958;17.726;2023-04-01T03:14:23;-8.90;99.90
10431;DHT22;5262;59.958;17.726;2023-04-01T03:16:49;-8.80;99.90
10431;DHT22;5262;59.958;17.726;2023-04-01T03:19:15;-8.70;99.90
10431;DHT22;5262;59.958;17.726;2023-04-01T03:21:40;-8.70;99.90
10431;DHT22;5262;59.958;17.726;2023-04-01T03:24:07;-8.80;99.90
10431;DHT22;5262;59.958;17.726;2023-04-01T03:26:33;-8.80;99.90
10431;DHT22;5262;59.958;17.726;2023-04-01T03:28:59;-8.90;99.90
10431;DHT22;5262;59.958;17.726;2023-04-01T03:31:25;-8.90;99.90
10431;DHT22;5262;59.958;17.726;2023-04-01T03:33:50;-8.90;99.90
10431;DHT22;5262;59.958;17.726;2023-04-01T03:36:16;-9.00;99.90
10431;DHT22;5262;59.958;17.726;2023-04-01T03:38:44;-9.00;99.90
10431;DHT22;5262;59.958;17.726;2023-04-01T03:41:17;-8.80;99.90
10431;DHT22;5262;59.958;17.726;2023-04-01T03:43:43;-8.70;99.90
10431;DHT22;5262;59.958;17.726;2023-04-01T03:46:09;-8.70;99.90
10431;DHT22;5262;59.958;17.726;2023-04-01T03:48:35;-8.70;99.90
10431;DHT22;5262;59.958;17.726;2023-04-01T03:51:01;-8.70;99.90
10431;DHT22;5262;59.958;17.726;2023-04-01T03:53:26;-8.70;99.90
10431;DHT22;5262;59.958;17.726;2023-04-01T03:55:52;-8.70;99.90
10431;DHT22;5262;59.958;17.726;2023-04-01T03:58:18;-8.60;99.90
10431;DHT22;5262;59.958;17.726;2023-04-01T04:00:44;-8.50;99.90
10431;DHT22;5262;59.958;17.726;2023-04-01T04:03:10;-8.50;99.90
10431;DHT22;5262;59.958;17.726;2023-04-01T04:05:36;-8.50;99.90
10431;DHT22;5262;59.958;17.726;2023-04-01T04:08:02;-8.60;99.90
10431;DHT22;5262;59.958;17.726;2023-04-01T04:10:27;-8.70;99.90
10431;DHT22;5262;59.958;17.726;2023-04-01T04:12:54;-8.60;99.90
10431;DHT22;5262;59.958;17.726;2023-04-01T04:15:30;-8.60;99.90
10431;DHT22;5262;59.958;17.726;2023-04-01T04:18:16;-8.70;99.90
10431;DHT22;5262;59.958;17.726;2023-04-01T04:21:02;-8.80;99.90
10431;DHT22;5262;59.958;17.726;2023-04-01T04:23:48;-8.80;99.90
10431;DHT22;5262;59.958;17.726;2023-04-01T04:26:34;-8.80;99.90
10431;DHT22;5262;59.958;17.726;2023-04-01T04:29:19;-8.90;99.90
10431;DHT22;5262;59.958;17.726;2023-04-01T04:32:05;-8.80;99.90
10431;DHT22;5262;59.958;17.726;2023-04-01T04:34:51;-8.80;99.90
10431;DHT22;5262;59.958;17.726;2023-04-01T04:37:36;-8.90;99.90
10431;DHT22;5262;59.958;17.726;2023-04-01T04:40:22;-8.90;99.90
10431;DHT22;5262;59.958;17.726;2023-04-01T04:43:10;-8.70;99.90
10431;DHT22;5262;59.958;17.726;2023-04-01T04:45:56;-8.70;99.90
10431;DHT22;5262;59.958;17.726;2023-04-01T04:48:22;-8.70;99.90
10431;DHT22;5262;59.958;17.726;2023-04-01T04:50:49;-8.70;99.90
10431;DHT22;5262;59.958;17.726;2023-04-01T04:53:18;-8.60;99.90
10431;DHT22;5262;59.958;17.726;2023-04-01T04:55:45;-8.50;99.90
10431;DHT22;5262;59.958;17.726;2023-04-01T04:58:11;-8.40;99.90
10431;DHT22;5262;59.958;17.726;2023-04-01T05:00:37;-8.40;99.90
10431;DHT22;5262;59.958;17.726;2023-04-01T05:03:02;-8.40;99.90
10431;DHT22;5262;59.958;17.726;2023-04-01T05:05:28;-8.30;99.90
10431;DHT22;5262;59.958;17.726;2023-04-01T05:07:54;-8.20;99.90
10431;DHT22;5262;59.958;17.726;2023-04-01T05:10:19;-8.20;99.90
10431;DHT22;5262;59.958;17.726;2023-04-01T05:12:46;-8.10;99.90
10431;DHT22;5262;59.958;17.726;2023-04-01T05:15:12;-8.00;99.90
10431;DHT22;5262;59.958;17.726;2023-04-01T05:17:37;-7.80;99.90
10431;DHT22;5262;59.958;17.726;2023-04-01T05:20:04;-7.60;99.90
10431;DHT22;5262;59.958;17.726;2023-04-01T05:22:29;-7.50;99.90
10431;DHT22;5262;59.958;17.726;2023-04-01T05:24:55;-7.40;99.90
10431;DHT22;5262;59.958;17.726;2023-04-01T05:27:21;-7.40;99.90
10431;DHT22;5262;59.958;17.726;2023-04-01T05:29:47;-7.20;99.90
10431;DHT22;5262;59.958;17.726;2023-04-01T05:32:12;-7.20;99.90
10431;DHT22;5262;59.958;17.726;2023-04-01T05:34:38;-7.20;99.90
10431;DHT22;5262;59.958;17.726;2023-04-01T05:37:04;-7.10;99.90
10431;DHT22;5262;59.958;17.726;2023-04-01T05:39:30;-7.00;99.90
10431;DHT22;5262;59.958;17.726;2023-04-01T05:41:55;-6.90;99.90
10431;DHT22;5262;59.958;17.726;2023-04-01T05:44:21;-6.90;99.90
10431;DHT22;5262;59.958;17.726;2023-04-01T05:46:46;-6.80;99.90
10431;DHT22;5262;59.958;17.726;2023-04-01T05:49:12;-6.70;99.90
10431;DHT22;5262;59.958;17.726;2023-04-01T05:51:38;-6.70;99.90
10431;DHT22;5262;59.958;17.726;2023-04-01T05:54:06;-6.60;99.90
10431;DHT22;5262;59.958;17.726;2023-04-01T05:56:32;-6.50;99.90
10431;DHT22;5262;59.958;17.726;2023-04-01T05:58:58;-6.30;99.90
10431;DHT22;5262;59.958;17.726;2023-04-01T06:01:23;-6.20;99.90
10431;DHT22;5262;59.958;17.726;2023-04-01T06:03:49;-6.10;99.90
10431;DHT22;5262;59.958;17.726;2023-04-01T06:06:20;-6.00;99.90
10431;DHT22;5262;59.958;17.726;2023-04-01T06:08:48;-5.90;99.90
10431;DHT22;5262;59.958;17.726;2023-04-01T06:11:33;-5.70;99.90
10431;DHT22;5262;59.958;17.726;2023-04-01T06:22:27;-4.70;99.90
10431;DHT22;5262;59.958;17.726;2023-04-01T06:25:00;-4.40;99.90
10431;DHT22;5262;59.958;17.726;2023-04-01T06:39:02;-2.80;99.90
10431;DHT22;5262;59.958;17.726;2023-04-01T06:55:41;-0.10;99.90
10431;DHT22;5262;59.958;17.726;2023-04-01T06:58:19;0.10;99.90
10431;DHT22;5262;59.958;17.726;2023-04-01T07:00:48;0.80;99.90
10431;DHT22;5262;59.958;17.726;2023-04-01T07:05:46;1.60;99.90
10431;DHT22;5262;59.958;17.726;2023-04-01T07:08:21;2.60;99.90
10431;DHT22;5262;59.958;17.726;2023-04-01T07:11:03;3.60;99.90
10431;DHT22;5262;59.958;17.726;2023-04-01T07:13:52;4.10;99.90
10431;DHT22;5262;59.958;17.726;2023-04-01T07:16:21;4.80;99.90
10431;DHT22;5262;59.958;17.726;2023-04-01T07:18:56;5.50;98.80
10431;DHT22;5262;59.958;17.726;2023-04-01T07:21:29;5.60;98.00
10431;DHT22;5262;59.958;17.726;2023-04-01T07:23:59;6.00;97.80
10431;DHT22;5262;59.958;17.726;2023-04-01T07:26:26;6.60;96.00
10431;DHT22;5262;59.958;17.726;2023-04-01T07:28:53;6.60;95.10
10431;DHT22;5262;59.958;17.726;2023-04-01T07:34:23;8.40;92.20
10431;DHT22;5262;59.958;17.726;2023-04-01T07:39:35;8.20;91.40
10431;DHT22;5262;59.958;17.726;2023-04-01T07:42:20;9.10;91.20
10431;DHT22;5262;59.958;17.726;2023-04-01T07:59:31;10.60;82.90
10431;DHT22;5262;59.958;17.726;2023-04-01T08:16:30;12.40;76.00
10431;DHT22;5262;59.958;17.726;2023-04-01T08:22:19;12.00;73.00
10431;DHT22;5262;59.958;17.726;2023-04-01T08:24:48;13.10;70.40
10431;DHT22;5262;59.958;17.726;2023-04-01T08:27:18;13.20;68.80
10431;DHT22;5262;59.958;17.726;2023-04-01T08:30:26;13.50;68.40
10431;DHT22;5262;59.958;17.726;2023-04-01T08:32:57;13.70;67.00
10431;DHT22;5262;59.958;17.726;2023-04-01T08:35:37;12.40;63.50
10431;DHT22;5262;59.958;17.726;2023-04-01T08:38:54;13.10;62.10
10431;DHT22;5262;59.958;17.726;2023-04-01T08:44:30;13.20;59.60
10431;DHT22;5262;59.958;17.726;2023-04-01T08:47:19;14.30;58.30
10431;DHT22;5262;59.958;17.726;2023-04-01T08:55:31;14.20;57.10
10431;DHT22;5262;59.958;17.726;2023-04-01T09:03:44;14.30;55.20
10431;DHT22;5262;59.958;17.726;2023-04-01T09:06:28;14.90;56.00
10431;DHT22;5262;59.958;17.726;2023-04-01T09:17:20;13.20;52.80
10431;DHT22;5262;59.958;17.726;2023-04-01T09:25:44;15.20;53.20
10431;DHT22;5262;59.958;17.726;2023-04-01T09:28:48;14.80;52.40
10431;DHT22;5262;59.958;17.726;2023-04-01T09:31:41;14.60;53.50
10431;DHT22;5262;59.958;17.726;2023-04-01T09:39:42;13.80;52.20
10431;DHT22;5262;59.958;17.726;2023-04-01T09:42:41;14.70;52.30
10431;DHT22;5262;59.958;17.726;2023-04-01T09:45:33;14.80;50.60
10431;DHT22;5262;59.958;17.726;2023-04-01T09:48:36;13.90;49.80
10431;DHT22;5262;59.958;17.726;2023-04-01T10:03:16;12.90;45.80
10431;DHT22;5262;59.958;17.726;2023-04-01T10:21:09;13.50;45.00
10431;DHT22;5262;59.958;17.726;2023-04-01T10:37:50;12.90;46.40
10431;DHT22;5262;59.958;17.726;2023-04-01T10:45:54;14.60;45.80
10431;DHT22;5262;59.958;17.726;2023-04-01T10:56:51;12.30;46.40
10431;DHT22;5262;59.958;17.726;2023-04-01T11:11:03;12.70;46.30
10431;DHT22;5262;59.958;17.726;2023-04-01T11:16:40;13.60;46.60
10431;DHT22;5262;59.958;17.726;2023-04-01T11:27:46;11.70;47.70
10431;DHT22;5262;59.958;17.726;2023-04-01T11:30:27;12.50;47.70
10431;DHT22;5262;59.958;17.726;2023-04-01T11:33:19;12.60;48.90
10431;DHT22;5262;59.958;17.726;2023-04-01T11:41:46;12.00;47.70
10431;DHT22;5262;59.958;17.726;2023-04-01T11:44:25;12.40;46.60
10431;DHT22;5262;59.958;17.726;2023-04-01T11:55:54;11.40;46.90
10431;DHT22;5262;59.958;17.726;2023-04-01T11:58:36;11.80;47.90
10431;DHT22;5262;59.958;17.726;2023-04-01T12:01:27;12.10;46.50
10431;DHT22;5262;59.958;17.726;2023-04-01T12:07:08;12.40;46.30
10431;DHT22;5262;59.958;17.726;2023-04-01T12:10:15;11.30;47.40
10431;DHT22;5262;59.958;17.726;2023-04-01T12:12:59;10.80;46.70
10431;DHT22;5262;59.958;17.726;2023-04-01T12:18:40;10.30;46.80
10431;DHT22;5262;59.958;17.726;2023-04-01T12:32:30;8.80;51.00
10431;DHT22;5262;59.958;17.726;2023-04-01T12:37:44;8.00;51.80
10431;DHT22;5262;59.958;17.726;2023-04-01T12:51:08;8.30;53.70
10431;DHT22;5262;59.958;17.726;2023-04-01T12:56:16;8.10;55.30
10431;DHT22;5262;59.958;17.726;2023-04-01T12:59:24;8.20;55.80
10431;DHT22;5262;59.958;17.726;2023-04-01T13:02:20;8.10;53.50
10431;DHT22;5262;59.958;17.726;2023-04-01T13:07:40;7.40;56.30
10431;DHT22;5262;59.958;17.726;2023-04-01T13:13:06;7.40;56.50
10431;DHT22;5262;59.958;17.726;2023-04-01T13:18:31;6.90;55.90
10431;DHT22;5262;59.958;17.726;2023-04-01T13:23:49;7.00;55.70
10431;DHT22;5262;59.958;17.726;2023-04-01T13:26:27;7.00;54.20
10431;DHT22;5262;59.958;17.726;2023-04-01T13:29:21;6.70;55.60
10431;DHT22;5262;59.958;17.726;2023-04-01T13:34:38;7.00;55.30
10431;DHT22;5262;59.958;17.726;2023-04-01T13:40:04;6.70;54.00
10431;DHT22;5262;59.958;17.726;2023-04-01T13:42:53;6.10;54.20
10431;DHT22;5262;59.958;17.726;2023-04-01T13:45:23;5.90;55.20
10431;DHT22;5262;59.958;17.726;2023-04-01T14:15:59;5.30;57.40
10431;DHT22;5262;59.958;17.726;2023-04-01T14:24:58;5.70;56.60
10431;DHT22;5262;59.958;17.726;2023-04-01T14:27:50;5.60;58.00
10431;DHT22;5262;59.958;17.726;2023-04-01T14:30:39;5.60;58.60
10431;DHT22;5262;59.958;17.726;2023-04-01T14:33:31;5.50;57.50
10431;DHT22;5262;59.958;17.726;2023-04-01T14:39:36;5.40;58.60
10431;DHT22;5262;59.958;17.726;2023-04-01T14:50:19;4.90;58.30
10431;DHT22;5262;59.958;17.726;2023-04-01T14:58:13;4.70;57.70
10431;DHT22;5262;59.958;17.726;2023-04-01T15:00:48;4.60;58.00
10431;DHT22;5262;59.958;17.726;2023-04-01T15:08:31;4.50;58.90
10431;DHT22;5262;59.958;17.726;2023-04-01T15:24:26;3.80;60.00
10431;DHT22;5262;59.958;17.726;2023-04-01T15:27:20;3.70;61.00
10431;DHT22;5262;59.958;17.726;2023-04-01T15:30:15;3.50;59.30
10431;DHT22;5262;59.958;17.726;2023-04-01T15:32:58;3.60;61.50
10431;DHT22;5262;59.958;17.726;2023-04-01T15:38:53;3.70;60.10
10431;DHT22;5262;59.958;17.726;2023-04-01T15:44:46;3.40;59.50
10431;DHT22;5262;59.958;17.726;2023-04-01T15:55:31;3.00;59.20
10431;DHT22;5262;59.958;17.726;2023-04-01T16:03:59;2.60;59.70
10431;DHT22;5262;59.958;17.726;2023-04-01T16:09:12;2.50;60.70
10431;DHT22;5262;59.958;17.726;2023-04-01T16:21:07;2.40;63.50
10431;DHT22;5262;59.958;17.726;2023-04-01T16:23:55;2.40;63.50
10431;DHT22;5262;59.958;17.726;2023-04-01T16:29:09;2.30;65.70
10431;DHT22;5262;59.958;17.726;2023-04-01T16:31:48;2.10;66.40
10431;DHT22;5262;59.958;17.726;2023-04-01T16:34:21;2.10;67.40
10431;DHT22;5262;59.958;17.726;2023-04-01T16:37:15;1.90;68.20
10431;DHT22;5262;59.958;17.726;2023-04-01T16:42:57;1.70;69.80
10431;DHT22;5262;59.958;17.726;2023-04-01T16:45:53;1.50;71.00
10431;DHT22;5262;59.958;17.726;2023-04-01T16:48:49;1.40;71.80
10431;DHT22;5262;59.958;17.726;2023-04-01T16:51:18;1.30;72.00
10431;DHT22;5262;59.958;17.726;2023-04-01T16:53:52;1.20;71.70
10431;DHT22;5262;59.958;17.726;2023-04-01T16:56:29;1.00;71.10
10431;DHT22;5262;59.958;17.726;2023-04-01T16:59:21;0.90;72.70
10431;DHT22;5262;59.958;17.726;2023-04-01T17:04:34;0.80;71.10
10431;DHT22;5262;59.958;17.726;2023-04-01T17:27:12;-0.10;75.40
10431;DHT22;5262;59.958;17.726;2023-04-01T17:46:26;-0.80;81.70
10431;DHT22;5262;59.958;17.726;2023-04-01T17:52:17;-1.00;82.30
10431;DHT22;5262;59.958;17.726;2023-04-01T17:58:08;-1.10;85.30
10431;DHT22;5262;59.958;17.726;2023-04-01T18:00:54;-1.20;88.60
10431;DHT22;5262;59.958;17.726;2023-04-01T18:06:33;-1.30;90.50
10431;DHT22;5262;59.958;17.726;2023-04-01T18:12:10;-1.50;91.70
10431;DHT22;5262;59.958;17.726;2023-04-01T18:21:32;-1.70;93.80
10431;DHT22;5262;59.958;17.726;2023-04-01T18:23:46;-1.80;93.90
10431;DHT22;5262;59.958;17.726;2023-04-01T18:26:33;-1.80;95.10
10431;DHT22;5262;59.958;17.726;2023-04-01T18:29:10;-1.90;95.50
10431;DHT22;5262;59.958;17.726;2023-04-01T18:31:42;-2.00;96.10
10431;DHT22;5262;59.958;17.726;2023-04-01T18:39:54;-2.20;97.80
10431;DHT22;5262;59.958;17.726;2023-04-01T18:42:55;-2.30;98.30
10431;DHT22;5262;59.958;17.726;2023-04-01T18:45:33;-2.40;98.90
10431;DHT22;5262;59.958;17.726;2023-04-01T18:50:57;-2.60;99.80
10431;DHT22;5262;59.958;17.726;2023-04-01T18:53:44;-2.60;99.90
10431;DHT22;5262;59.958;17.726;2023-04-01T18:56:45;-2.60;99.90
10431;DHT22;5262;59.958;17.726;2023-04-01T18:59:32;-2.70;99.90
10431;DHT22;5262;59.958;17.726;2023-04-01T19:02:27;-2.80;99.90
10431;DHT22;5262;59.958;17.726;2023-04-01T19:05:04;-2.80;99.90
10431;DHT22;5262;59.958;17.726;2023-04-01T19:18:47;-3.10;99.90
10431;DHT22;5262;59.958;17.726;2023-04-01T19:21:26;-3.20;99.90
10431;DHT22;5262;59.958;17.726;2023-04-01T19:26:45;-3.40;99.90
10431;DHT22;5262;59.958;17.726;2023-04-01T19:29:26;-3.30;99.90
10431;DHT22;5262;59.958;17.726;2023-04-01T19:34:59;-3.50;99.90
10431;DHT22;5262;59.958;17.726;2023-04-01T19:37:50;-3.50;99.90
10431;DHT22;5262;59.958;17.726;2023-04-01T19:40:29;-3.50;99.90
10431;DHT22;5262;59.958;17.726;2023-04-01T19:43:01;-3.60;99.90
10431;DHT22;5262;59.958;17.726;2023-04-01T19:45:55;-3.60;99.90
10431;DHT22;5262;59.958;17.726;2023-04-01T19:48:38;-3.70;99.90
10431;DHT22;5262;59.958;17.726;2023-04-01T19:51:17;-3.80;99.90
10431;DHT22;5262;59.958;17.726;2023-04-01T19:54:34;-3.80;99.90
10431;DHT22;5262;59.958;17.726;2023-04-01T19:59:33;-4.00;99.90
10431;DHT22;5262;59.958;17.726;2023-04-01T20:04:49;-4.20;99.90
10431;DHT22;5262;59.958;17.726;2023-04-01T20:10:00;-4.20;99.90
10431;DHT22;5262;59.958;17.726;2023-04-01T20:12:37;-4.30;99.90
10431;DHT22;5262;59.958;17.726;2023-04-01T20:17:54;-4.40;99.90
10431;DHT22;5262;59.958;17.726;2023-04-01T20:20:25;-4.50;99.90
10431;DHT22;5262;59.958;17.726;2023-04-01T20:23:24;-4.50;99.90
10431;DHT22;5262;59.958;17.726;2023-04-01T20:25:57;-4.60;99.90
10431;DHT22;5262;59.958;17.726;2023-04-01T20:28:42;-4.70;99.90
10431;DHT22;5262;59.958;17.726;2023-04-01T20:31:41;-4.60;99.90
10431;DHT22;5262;59.958;17.726;2023-04-01T20:34:19;-4.60;99.90
10431;DHT22;5262;59.958;17.726;2023-04-01T20:51:15;-4.60;99.90
10431;DHT22;5262;59.958;17.726;2023-04-01T21:02:36;-4.60;99.90
10431;DHT22;5262;59.958;17.726;2023-04-01T21:05:31;-4.70;99.90
10431;DHT22;5262;59.958;17.726;2023-04-01T21:08:25;-4.70;99.90
10431;DHT22;5262;59.958;17.726;2023-04-01T21:16:52;-4.90;99.90
10431;DHT22;5262;59.958;17.726;2023-04-01T21:20:04;-5.00;99.90
10431;DHT22;5262;59.958;17.726;2023-04-01T21:28:28;-5.20;99.90
10431;DHT22;5262;59.958;17.726;2023-04-01T21:34:04;-5.20;99.90
10431;DHT22;5262;59.958;17.726;2023-04-01T21:37:06;-5.20;99.90
10431;DHT22;5262;59.958;17.726;2023-04-01T21:42:37;-5.40;99.90
10431;DHT22;5262;59.958;17.726;2023-04-01T21:51:15;-5.30;99.90
10431;DHT22;5262;59.958;17.726;2023-04-01T22:10:51;-5.20;99.90
10431;DHT22;5262;59.958;17.726;2023-04-01T22:16:22;-5.30;99.90
10431;DHT22;5262;59.958;17.726;2023-04-01T22:22:04;-5.40;99.90
10431;DHT22;5262;59.958;17.726;2023-04-01T22:27:40;-5.50;99.90
10431;DHT22;5262;59.958;17.726;2023-04-01T22:30:24;-5.50;99.90
10431;DHT22;5262;59.958;17.726;2023-04-01T22:38:45;-5.60;99.90
10431;DHT22;5262;59.958;17.726;2023-04-01T22:47:22;-5.80;99.90
10431;DHT22;5262;59.958;17.726;2023-04-01T22:52:38;-5.80;99.90
10431;DHT22;5262;59.958;17.726;2023-04-01T22:55:15;-5.80;99.90
10431;DHT22;5262;59.958;17.726;2023-04-01T22:57:49;-5.80;99.90
10431;DHT22;5262;59.958;17.726;2023-04-01T23:03:34;-5.90;99.90
10431;DHT22;5262;59.958;17.726;2023-04-01T23:06:03;-5.90;99.90
10431;DHT22;5262;59.958;17.726;2023-04-01T23:19:46;-6.00;99.90
10431;DHT22;5262;59.958;17.726;2023-04-01T23:22:21;-6.00;99.90
10431;DHT22;5262;59.958;17.726;2023-04-01T23:25:12;-6.00;99.90
10431;DHT22;5262;59.958;17.726;2023-04-01T23:27:53;-6.00;99.90
10431;DHT22;5262;59.958;17.726;2023-04-01T23:36:02;-6.10;99.90
10431;DHT22;5262;59.958;17.726;2023-04-01T23:38:41;-6.10;99.90
10431;DHT22;5262;59.958;17.726;2023-04-01T23:41:17;-6.10;99.90
10431;DHT22;5262;59.958;17.726;2023-04-01T23:43:54;-6.20;99.90
10431;DHT22;5262;59.958;17.726;2023-04-01T23:46:21;-6.20;99.90
10431;DHT22;5262;59.958;17.726;2023-04-01T23:48:47;-6.30;99.90
10431;DHT22;5262;59.958;17.726;2023-04-01T23:53:47;-6.30;99.90
10431;DHT22;5262;59.958;17.726;2023-04-01T23:56:17;-6.30;99.90
10431;DHT22;5262;59.958;17.726;2023-04-01T23:58:47;-6.30;99.90
